createdAt,value
2023-01-22T00:05:33.611Z,75.28
2023-01-22T00:10:03.499Z,75.55
2023-01-22T00:28:18.776Z,75.51
2023-01-22T00:32:41.232Z,75.53
2023-01-22T00:37:01.872Z,75.36
2023-01-22T00:54:15.665Z,75.67
2023-01-22T00:58:44.547Z,75.74
2023-01-22T01:03:11.644Z,75.77
2023-01-22T01:07:41.283Z,75.99
2023-01-22T01:12:00.976Z,76.22
2023-01-22T01:16:30.400Z,76.23
2023-01-22T01:20:59.716Z,76.28
2023-01-22T01:42:10.220Z,76.50
2023-01-22T01:46:39.741Z,76.86
2023-01-22T01:50:48.963Z,76.51
2023-01-22T01:55:18.703Z,76.55
2023-01-22T02:21:02.259Z,76.96
2023-01-22T02:25:32.329Z,76.93
2023-01-22T02:30:02.540Z,77.10
2023-01-22T02:34:24.527Z,77.02
2023-01-22T02:38:44.554Z,77.04
2023-01-22T02:55:56.570Z,77.10
2023-01-22T03:00:26.138Z,76.82
2023-01-22T03:04:46.554Z,77.12
2023-01-22T03:08:54.109Z,77.29
2023-01-22T03:13:21.975Z,76.82
2023-01-22T03:17:49.707Z,77.29
2023-01-22T03:44:00.597Z,77.24
2023-01-22T03:48:29.768Z,77.32
2023-01-22T04:14:27.700Z,77.44
2023-01-22T04:19:00.059Z,77.25
2023-01-22T04:45:10.597Z,77.55
2023-01-22T04:49:39.487Z,77.34
2023-01-22T04:53:51.877Z,77.51
2023-01-22T04:58:06.329Z,77.36
2023-01-22T05:02:15.718Z,77.60
2023-01-22T05:38:07.182Z,77.83
2023-01-22T05:42:32.417Z,77.66
2023-01-22T05:46:50.993Z,77.81
2023-01-22T06:04:10.218Z,78.22
2023-01-22T06:08:39.651Z,77.94
2023-01-22T06:13:01.072Z,78.11
2023-01-22T06:17:31.872Z,78.03
2023-01-22T06:21:52.412Z,78.03
2023-01-22T06:43:24.724Z,78.04
2023-01-22T06:47:54.163Z,77.83
2023-01-22T06:52:23.553Z,77.79
2023-01-22T07:13:48.320Z,77.81
2023-01-22T07:18:18.043Z,77.97
2023-01-22T07:22:48.964Z,77.56
2023-01-22T07:41:20.272Z,77.70
2023-01-22T07:45:56.251Z,77.77
2023-01-22T08:07:14.693Z,77.75
2023-01-22T08:11:44.439Z,77.88
2023-01-22T08:16:14.092Z,78.01
2023-01-22T08:20:43.169Z,77.67
2023-01-22T08:38:03.843Z,77.98
2023-01-22T08:42:13.185Z,77.98
2023-01-22T08:46:33.050Z,78.03
2023-01-22T08:50:52.493Z,77.91
2023-01-22T08:55:15.157Z,78.00
2023-01-22T08:59:35.621Z,78.04
2023-01-22T09:21:08.596Z,77.96
2023-01-22T09:25:38.606Z,77.86
2023-01-22T09:29:57.238Z,77.99
2023-01-22T09:34:27.000Z,78.12
2023-01-22T09:38:57.810Z,78.09
2023-01-22T10:01:53.416Z,77.92
2023-01-22T10:05:56.069Z,77.94
2023-01-22T10:10:25.609Z,77.99
2023-01-22T10:14:58.015Z,78.09
2023-01-22T10:19:19.828Z,78.24
2023-01-22T10:23:41.489Z,77.96
2023-01-22T10:42:11.394Z,77.82
2023-01-22T10:46:47.270Z,77.80
2023-01-22T10:51:16.887Z,77.86
2023-01-22T10:55:39.998Z,77.77
2023-01-22T11:00:04.733Z,77.79
2023-01-22T11:04:34.049Z,77.73
2023-01-22T11:09:01.335Z,77.75
2023-01-22T11:35:44.881Z,77.50
2023-01-22T11:40:11.632Z,77.61
2023-01-22T11:45:05.238Z,77.65
2023-01-22T12:02:57.338Z,77.67
2023-01-22T12:07:43.179Z,77.49
2023-01-22T12:12:23.349Z,77.39
2023-01-22T12:16:33.810Z,77.42
2023-01-22T12:21:05.975Z,77.41
2023-01-22T12:25:36.601Z,77.39
2023-01-22T12:30:07.058Z,77.32
2023-01-22T12:39:21.130Z,77.20
2023-01-22T12:43:57.404Z,77.17
2023-01-22T12:48:32.966Z,77.11
2023-01-22T12:53:12.363Z,77.11
2023-01-22T12:57:42.565Z,77.19
2023-01-22T13:23:25.292Z,76.92
2023-01-22T13:27:53.216Z,77.05
2023-01-22T13:32:21.225Z,76.96
2023-01-22T13:36:46.958Z,76.90
2023-01-22T13:58:47.184Z,76.86
2023-01-22T14:03:23.340Z,76.87
2023-01-22T14:07:42.788Z,76.69
2023-01-22T14:11:58.068Z,76.58
2023-01-22T14:16:02.498Z,76.98
2023-01-22T14:24:14.249Z,76.72
2023-01-22T14:32:30.480Z,77.09
2023-01-22T14:36:26.162Z,77.03
2023-01-22T14:45:06.145Z,76.78
2023-01-22T14:49:21.335Z,76.50
2023-01-22T15:32:23.920Z,76.84
2023-01-22T15:36:40.665Z,76.91
2023-01-22T15:40:39.695Z,76.82
2023-01-22T15:45:02.950Z,76.87
2023-01-22T15:49:30.882Z,76.63
2023-01-22T15:53:56.851Z,76.71
2023-01-22T16:24:21.524Z,76.57
2023-01-22T16:28:50.621Z,76.52
2023-01-22T16:32:58.625Z,76.53
2023-01-22T16:41:59.194Z,76.30
2023-01-22T16:46:28.881Z,76.59
2023-01-22T17:20:39.855Z,76.55
2023-01-22T17:25:09.692Z,76.70
2023-01-22T17:29:34.351Z,76.64
2023-01-22T17:34:05.277Z,76.45
2023-01-22T18:04:07.650Z,76.42
2023-01-22T18:08:22.643Z,76.50
2023-01-22T18:33:54.933Z,76.50
2023-01-22T18:38:23.836Z,76.37
2023-01-22T18:42:53.310Z,76.30
2023-01-22T18:47:22.298Z,76.27
2023-01-22T18:51:45.921Z,76.34
2023-01-22T18:56:16.262Z,76.53
2023-01-22T19:00:38.840Z,76.52
2023-01-22T19:04:41.212Z,76.52
2023-01-22T19:08:44.921Z,76.26
2023-01-22T19:17:32.847Z,76.61
2023-01-22T19:42:39.810Z,76.33
2023-01-22T19:47:09.193Z,76.50
2023-01-22T19:51:20.412Z,76.39
2023-01-22T19:55:18.890Z,76.39
2023-01-22T19:59:51.243Z,76.68
2023-01-22T20:04:13.668Z,76.52
2023-01-22T20:08:35.063Z,76.81
2023-01-22T20:13:04.734Z,76.72
2023-01-22T20:17:38.923Z,76.61
2023-01-22T20:26:35.625Z,76.68
2023-01-22T20:43:18.249Z,76.52
2023-01-22T20:47:47.198Z,76.68
2023-01-22T20:52:15.129Z,76.53
2023-01-22T20:56:44.189Z,76.71
2023-01-22T21:01:14.137Z,76.68
2023-01-22T21:05:43.446Z,76.81
2023-01-22T21:10:13.493Z,76.67
2023-01-22T21:14:08.331Z,76.87
2023-01-22T21:18:01.186Z,76.72
2023-01-22T21:22:31.696Z,76.76
2023-01-22T21:26:38.092Z,76.93
2023-01-22T21:31:07.015Z,76.69
2023-01-22T22:05:36.553Z,76.95
2023-01-22T22:10:05.345Z,77.17
2023-01-22T22:14:35.709Z,77.11
2023-01-22T22:19:05.525Z,76.89
2023-01-22T22:23:27.290Z,76.98
2023-01-22T22:44:37.050Z,77.12
2023-01-22T22:48:58.577Z,77.15
2023-01-22T22:53:26.160Z,76.99
2023-01-22T23:38:23.174Z,77.01
2023-01-22T23:42:41.727Z,77.14
2023-01-22T23:47:02.067Z,77.27
2023-01-22T23:51:30.832Z,77.12
2023-01-22T23:56:00.388Z,77.06
